Time;durP1;ratioP1;P1;durP2;ratioP2;P2;SDS_P1;SDS_P2;PMS_P1;PMS_P2;Temp;Humidity;BMP_temperature;BMP_pressure;BME280_temperature;BME280_humidity;BME280_pressure;Samples;Min_cycle;Max_cycle;Signal;HPM_P1;HPM_P2
2022/06/10 00:00:56;;;;;;;16.83;9.10;;;;;;;17.33;95.36;99839.41;4935617;28;20058;-82
2022/06/10 00:03:25;;;;;;;12.07;8.73;;;;;;;17.63;94.26;99861.25;4939830;28;20525;-83
2022/06/10 00:05:54;;;;;;;10.65;8.07;;;;;;;17.59;93.28;99856.13;4925727;28;20126;-84
2022/06/10 00:08:24;;;;;;;8.88;7.18;;;;;;;17.47;93.19;99857.47;4932621;28;20031;-83
2022/06/10 00:10:51;;;;;;;11.07;8.85;;;;;;;17.14;94.14;99851.56;4940298;28;20062;-84
2022/06/10 00:13:19;;;;;;;8.93;7.75;;;;;;;17.04;94.51;99841.34;4939965;28;20040;-84
2022/06/10 00:15:44;;;;;;;11.65;8.10;;;;;;;17.20;94.42;99868.13;4938547;28;20039;-83
2022/06/10 00:18:10;;;;;;;12.10;8.55;;;;;;;17.13;93.94;99837.47;4940263;28;20047;-83
2022/06/10 00:20:36;;;;;;;11.02;8.27;;;;;;;17.19;94.06;99862.91;4939490;28;20490;-83
2022/06/10 00:23:03;;;;;;;9.02;7.30;;;;;;;17.23;94.16;99864.50;4940567;28;20067;-83
2022/06/10 00:25:28;;;;;;;15.02;8.98;;;;;;;17.11;94.98;99867.59;4939340;28;20058;-84
2022/06/10 00:27:54;;;;;;;10.85;8.80;;;;;;;16.90;95.89;99874.53;4941150;28;20054;-84
2022/06/10 00:30:25;;;;;;;10.85;8.52;;;;;;;17.15;95.06;99859.47;4939145;28;20047;-83
2022/06/10 00:32:50;;;;;;;16.95;9.45;;;;;;;16.96;95.54;99875.19;4939619;28;20051;-83
2022/06/10 00:35:17;;;;;;;10.82;8.20;;;;;;;16.80;96.13;99852.78;4940810;28;20039;-83
2022/06/10 00:37:44;;;;;;;13.23;8.77;;;;;;;16.95;95.56;99857.56;4937188;28;20062;-84
2022/06/10 00:40:15;;;;;;;11.43;8.70;;;;;;;16.85;95.80;99872.03;4921920;28;20255;-84
2022/06/10 00:42:41;;;;;;;10.15;7.93;;;;;;;16.93;95.21;99882.34;4939004;28;20154;-83
2022/06/10 00:45:45;;;;;;;14.63;9.35;;;;;;;16.66;96.27;99877.91;4939287;28;21539;-82
2022/06/10 00:48:17;;;;;;;14.02;8.88;;;;;;;16.63;96.90;99879.81;4938066;28;20051;-82
2022/06/10 00:50:43;;;;;;;12.43;9.00;;;;;;;16.48;97.86;99886.47;4938420;28;20058;-83
2022/06/10 00:53:12;;;;;;;13.57;10.30;;;;;;;16.12;98.72;99864.72;4937323;28;20125;-83
2022/06/10 00:55:39;;;;;;;9.48;8.32;;;;;;;16.37;99.05;99880.69;4938419;28;20149;-85
2022/06/10 00:58:16;;;;;;;15.65;9.77;;;;;;;16.44;98.52;99885.72;4923567;28;20819;-86
2022/06/10 01:00:41;;;;;;;13.93;10.57;;;;;;;16.46;97.96;99891.84;4939295;28;20098;-85
2022/06/10 01:03:07;;;;;;;11.82;9.80;;;;;;;16.33;98.37;99882.56;4939514;28;20427;-83
2022/06/10 01:05:33;;;;;;;20.55;11.15;;;;;;;16.30;98.81;99877.38;4938907;28;20440;-87
2022/06/10 01:08:08;;;;;;;10.93;9.38;;;;;;;16.25;98.76;99882.81;4938533;28;20399;-85
2022/06/10 01:11:02;;;;;;;12.18;8.82;;;;;;;16.11;99.14;99860.31;4939179;28;20051;-86
2022/06/10 01:13:58;;;;;;;14.30;9.38;;;;;;;16.35;99.15;99877.22;4936706;28;20054;-83
2022/06/10 01:16:44;;;;;;;13.40;9.75;;;;;;;16.29;99.84;99888.00;4938309;28;20083;-84
2022/06/10 01:19:47;;;;;;;11.57;10.15;;;;;;;16.54;99.49;99882.78;4936856;28;20499;-85
2022/06/10 01:22:37;;;;;;;14.77;11.63;;;;;;;16.58;98.51;99887.06;4939942;28;20407;-86
2022/06/10 01:25:24;;;;;;;11.32;10.15;;;;;;;16.77;97.92;99887.31;4940690;28;20101;-86
2022/06/10 01:28:21;;;;;;;15.40;11.10;;;;;;;16.74;98.19;99888.28;4938160;28;20066;-85
2022/06/10 01:31:10;;;;;;;13.25;11.15;;;;;;;16.56;97.89;99879.16;4937798;28;20733;-84
2022/06/10 01:33:44;;;;;;;18.88;11.77;;;;;;;16.41;99.20;99877.88;4937947;28;20541;-85
2022/06/10 01:36:28;;;;;;;15.15;9.98;;;;;;;16.42;99.48;99881.41;4939177;28;20080;-83
2022/06/10 01:39:12;;;;;;;16.80;11.95;;;;;;;16.53;99.30;99873.97;4939622;28;21109;-85
2022/06/10 01:41:40;;;;;;;12.30;10.05;;;;;;;16.65;98.48;99880.63;4939407;28;20121;-83
2022/06/10 01:44:17;;;;;;;15.70;11.02;;;;;;;16.57;98.59;99878.22;4940705;28;20043;-83
2022/06/10 01:47:09;;;;;;;20.33;11.32;;;;;;;16.54;99.17;99888.94;4924711;28;20086;-84
2022/06/10 01:49:57;;;;;;;13.68;10.05;;;;;;;16.58;99.11;99879.97;4922339;28;21298;-84
2022/06/10 01:52:45;;;;;;;16.08;9.90;;;;;;;16.47;99.63;99882.09;4938872;28;20503;-84
2022/06/10 01:55:19;;;;;;;11.93;10.73;;;;;;;16.92;98.57;99897.41;4937167;28;20043;-83
2022/06/10 01:57:47;;;;;;;16.13;11.23;;;;;;;16.88;97.31;99898.44;4941961;28;20054;-83
2022/06/10 02:00:16;;;;;;;13.73;10.88;;;;;;;17.17;97.03;99899.22;4943627;28;20062;-85
2022/06/10 02:03:09;;;;;;;15.50;12.50;;;;;;;17.31;96.52;99886.31;4941881;28;20047;-84
2022/06/10 02:05:47;;;;;;;29.00;10.60;;;;;;;17.16;95.49;99881.56;4914268;28;20429;-84
2022/06/10 02:08:19;;;;;;;15.70;10.38;;;;;;;16.91;96.46;99886.88;4941574;28;20090;-84
2022/06/10 02:11:08;;;;;;;20.88;11.20;;;;;;;17.06;96.03;99888.97;4919287;28;20077;-85
2022/06/10 02:13:50;;;;;;;13.15;11.45;;;;;;;17.10;95.82;99903.84;4942936;28;20086;-85
2022/06/10 02:16:22;;;;;;;13.60;11.23;;;;;;;16.61;98.05;99887.81;4940274;28;20089;-88
2022/06/10 02:19:05;;;;;;;15.07;10.98;;;;;;;16.55;99.11;99898.63;4941386;28;20575;-86
2022/06/10 02:21:40;;;;;;;15.95;10.73;;;;;;;16.62;99.50;99907.22;4939570;28;20133;-86
2022/06/10 02:24:14;;;;;;;20.10;10.77;;;;;;;16.53;99.24;99894.28;4944207;28;20526;-87
2022/06/10 02:26:40;;;;;;;15.18;10.23;;;;;;;16.80;99.21;99908.44;4941366;28;20055;-86
2022/06/10 02:29:14;;;;;;;16.67;10.93;;;;;;;16.79;98.32;99891.66;4942112;28;20090;-84
2022/06/10 02:31:44;;;;;;;18.17;11.98;;;;;;;16.65;98.26;99884.16;4947721;28;20070;-83
2022/06/10 02:34:10;;;;;;;15.43;11.50;;;;;;;16.74;98.64;99913.88;4959613;28;20058;-84
2022/06/10 02:37:05;;;;;;;13.98;10.75;;;;;;;16.65;98.60;99921.25;4952059;28;20499;-83
2022/06/10 02:39:43;;;;;;;19.48;11.40;;;;;;;16.16;98.85;99851.34;4940542;28;20054;-83
2022/06/10 02:42:21;;;;;;;11.75;10.07;;;;;;;16.22;98.76;99855.56;4947103;28;20718;-86
2022/06/10 02:45:01;;;;;;;15.25;11.88;;;;;;;16.37;99.09;99889.50;4946714;28;20150;-86
2022/06/10 02:47:40;;;;;;;15.63;11.57;;;;;;;16.53;99.54;99937.53;4942654;28;20094;-86
2022/06/10 02:50:07;;;;;;;15.52;11.13;;;;;;;16.18;99.40;99867.19;4926549;28;20035;-85
2022/06/10 02:52:34;;;;;;;17.58;10.38;;;;;;;16.24;99.57;99877.56;4944702;28;20038;-84
2022/06/10 02:55:00;;;;;;;13.65;12.07;;;;;;;16.07;100.00;99875.44;4949103;28;20170;-86
2022/06/10 03:03:46;;;;;;;21.15;12.70;;;;;;;16.45;99.85;99921.88;4945726;28;20062;-86
2022/06/10 03:06:27;;;;;;;18.67;10.73;;;;;;;16.23;100.00;99913.75;4939637;28;20051;-85
2022/06/10 03:09:02;;;;;;;15.70;11.27;;;;;;;16.61;100.00;99942.56;4949361;28;20491;-85
2022/06/10 03:11:47;;;;;;;18.38;12.25;;;;;;;16.17;100.00;99876.00;4941604;28;20050;-84
2022/06/10 03:14:48;;;;;;;15.25;12.23;;;;;;;16.30;99.38;99884.44;4934825;28;20043;-86
2022/06/10 03:17:31;;;;;;;16.02;11.57;;;;;;;16.61;99.92;99956.69;4913159;29;20052;-86
2022/06/10 03:20:38;;;;;;;17.20;12.18;;;;;;;16.12;100.00;99884.09;4906696;29;20059;-84
2022/06/10 03:23:41;;;;;;;14.48;11.05;;;;;;;16.68;99.90;99968.81;4912959;29;20056;-84
2022/06/10 03:26:35;;;;;;;17.43;12.10;;;;;;;16.06;100.00;99900.19;4907739;29;20492;-84
2022/06/10 03:29:25;;;;;;;15.18;10.80;;;;;;;16.56;100.00;99965.72;4912618;29;20180;-84
2022/06/10 03:31:57;;;;;;;13.25;11.77;;;;;;;16.32;100.00;99930.25;4911549;29;20051;-84
2022/06/10 03:34:34;;;;;;;12.35;11.07;;;;;;;16.28;100.00;99928.63;4909049;29;20066;-83
2022/06/10 03:37:02;;;;;;;16.05;10.57;;;;;;;16.60;100.00;99957.63;4926255;29;20056;-83
2022/06/10 03:39:28;;;;;;;12.00;10.75;;;;;;;16.77;100.00;99964.16;4910438;29;20108;-85
2022/06/10 03:42:04;;;;;;;15.48;11.60;;;;;;;16.10;99.94;99869.19;4919563;29;20052;-83
2022/06/10 03:44:31;;;;;;;16.98;11.15;;;;;;;16.15;99.86;99894.56;4909075;29;20127;-84
2022/06/10 03:46:57;;;;;;;13.45;11.05;;;;;;;16.09;100.00;99892.16;4914084;29;20059;-82
2022/06/10 03:49:46;;;;;;;18.00;11.38;;;;;;;16.70;100.00;99952.03;4906994;29;20078;-82
2022/06/10 03:52:27;;;;;;;14.27;12.13;;;;;;;16.49;100.00;99930.59;4907527;29;20075;-84
2022/06/10 03:54:53;;;;;;;18.85;12.35;;;;;;;16.67;100.00;99975.03;4910902;29;20055;-84
2022/06/10 03:57:20;;;;;;;16.85;12.10;;;;;;;16.87;100.00;99977.06;4910864;29;20048;-85
2022/06/10 03:59:47;;;;;;;13.15;11.25;;;;;;;16.64;99.17;99900.09;4909425;29;20125;-84
2022/06/10 04:02:13;;;;;;;13.43;11.02;;;;;;;16.97;98.85;99971.47;4927123;29;20103;-84
2022/06/10 04:04:39;;;;;;;16.75;10.32;;;;;;;16.98;98.99;99987.31;4909777;29;20083;-81
2022/06/10 04:07:06;;;;;;;22.58;12.77;;;;;;;16.77;99.06;99943.81;4909501;29;20080;-83
2022/06/10 04:09:38;;;;;;;16.42;12.27;;;;;;;17.13;98.73;99995.66;4923726;28;20060;-84
2022/06/10 04:12:04;;;;;;;21.33;13.43;;;;;;;17.16;98.26;99972.59;4910420;29;20131;-84
2022/06/10 04:14:29;;;;;;;18.30;12.65;;;;;;;16.74;98.43;99901.53;4907217;28;20123;-84
2022/06/10 04:16:55;;;;;;;15.75;13.63;;;;;;;17.11;97.49;99949.78;4946233;28;20035;-81
2022/06/10 04:19:21;;;;;;;14.40;12.30;;;;;;;16.56;98.49;99908.28;4927228;28;20500;-81
2022/06/10 04:21:47;;;;;;;17.13;12.13;;;;;;;17.08;97.20;99934.84;4944755;28;20047;-81
2022/06/10 04:24:14;;;;;;;17.20;11.45;;;;;;;16.84;97.29;99916.22;4931442;28;20050;-81
2022/06/10 04:26:40;;;;;;;18.85;12.88;;;;;;;17.09;98.03;99984.28;4945364;28;20143;-82
2022/06/10 04:29:05;;;;;;;15.57;11.57;;;;;;;17.32;98.11;99995.91;4945987;28;20094;-81
2022/06/10 04:31:31;;;;;;;15.05;11.95;;;;;;;17.59;97.03;99989.63;4938278;28;20582;-83
2022/06/10 04:33:57;;;;;;;26.88;12.00;;;;;;;16.98;96.85;99914.91;4945621;28;20166;-86
2022/06/10 04:36:23;;;;;;;20.85;12.75;;;;;;;17.36;97.10;99993.09;4933123;28;20081;-87
2022/06/10 04:38:49;;;;;;;13.55;11.30;;;;;;;17.48;97.15;99987.34;4948868;28;20129;-86
2022/06/10 04:41:14;;;;;;;21.63;11.95;;;;;;;17.58;96.66;99985.25;4948148;28;20046;-86
2022/06/10 04:43:42;;;;;;;22.20;11.48;;;;;;;17.77;95.94;100027.03;4945208;28;20135;-84
2022/06/10 04:46:14;;;;;;;13.23;11.60;;;;;;;17.64;96.26;100016.88;4930158;28;20166;-85
2022/06/10 04:48:41;;;;;;;17.67;10.17;;;;;;;17.36;95.10;99941.84;4946425;28;20148;-85
2022/06/10 04:51:06;;;;;;;16.33;10.85;;;;;;;17.29;95.77;99965.91;4934000;28;20409;-85
2022/06/10 04:53:32;;;;;;;12.50;9.75;;;;;;;17.27;96.08;99980.16;4944935;28;20059;-84
2022/06/10 04:56:01;;;;;;;18.30;12.95;;;;;;;17.55;96.98;100029.59;4926657;28;20043;-86
2022/06/10 04:58:26;;;;;;;14.52;10.35;;;;;;;17.29;97.69;99991.59;4939685;28;20692;-85
2022/06/10 05:00:52;;;;;;;14.55;10.77;;;;;;;17.74;97.17;100030.69;4946924;28;20066;-87
2022/06/10 05:03:19;;;;;;;15.20;11.05;;;;;;;17.76;96.45;100027.97;4940547;28;20054;-83
2022/06/10 05:05:45;;;;;;;15.50;11.13;;;;;;;17.71;96.40;100023.69;4931169;28;20047;-83
2022/06/10 05:08:14;;;;;;;13.60;9.80;;;;;;;17.94;96.29;100027.34;4947377;28;20035;-82
2022/06/10 05:10:40;;;;;;;13.18;10.60;;;;;;;17.69;95.50;100016.72;4941296;28;20054;-84
2022/06/10 05:13:07;;;;;;;11.77;9.68;;;;;;;17.78;95.62;100019.03;4945504;28;20051;-82
2022/06/10 05:15:33;;;;;;;10.25;9.25;;;;;;;18.17;94.39;100038.88;4940791;28;20043;-83
2022/06/10 05:17:59;;;;;;;16.40;10.20;;;;;;;17.91;95.35;100032.75;4943369;28;20102;-82
2022/06/10 05:20:40;;;;;;;26.25;9.88;;;;;;;18.00;94.76;100037.72;4942335;28;20047;-81
2022/06/10 05:23:07;;;;;;;14.85;10.45;;;;;;;18.19;93.75;100047.66;4948353;28;20667;-82
2022/06/10 05:25:34;;;;;;;14.15;9.25;;;;;;;18.41;90.64;99981.31;4943874;28;20055;-83
2022/06/10 05:28:00;;;;;;;11.65;8.52;;;;;;;18.63;88.36;100019.38;4945212;28;20186;-82
2022/06/10 05:30:28;;;;;;;10.18;8.93;;;;;;;18.69;89.88;100059.03;4946702;28;20039;-82
2022/06/10 05:32:54;;;;;;;17.88;8.32;;;;;;;18.65;89.05;99985.66;4944364;28;20047;-82
2022/06/10 05:35:20;;;;;;;12.20;8.57;;;;;;;18.27;89.02;99957.97;4951064;28;20077;-83
2022/06/10 05:37:49;;;;;;;11.05;8.23;;;;;;;19.27;88.41;100050.53;4935613;28;20069;-84
2022/06/10 05:40:15;;;;;;;9.55;8.07;;;;;;;18.98;86.79;99994.06;4949257;28;20051;-83
2022/06/10 05:42:45;;;;;;;15.25;8.25;;;;;;;18.63;88.27;99976.88;4929973;28;20142;-86
2022/06/10 05:45:14;;;;;;;10.13;7.88;;;;;;;19.08;88.37;100073.47;4945670;28;20154;-73
2022/06/10 05:47:41;;;;;;;9.43;7.40;;;;;;;18.81;87.14;100016.97;4943538;28;20054;-74
2022/06/10 05:50:12;;;;;;;12.32;7.90;;;;;;;18.40;87.58;100007.00;4942491;28;20505;-75
2022/06/10 05:52:40;;;;;;;10.70;6.30;;;;;;;19.05;88.15;100050.53;4943928;28;20078;-83
2022/06/10 05:55:08;;;;;;;10.90;7.22;;;;;;;19.46;86.11;100058.59;4944171;28;20066;-80
2022/06/10 05:57:34;;;;;;;10.45;7.07;;;;;;;19.06;85.25;100027.44;4944170;28;20054;-84
2022/06/10 06:00:02;;;;;;;9.13;5.75;;;;;;;18.80;84.85;99994.84;4943120;28;20051;-78
2022/06/10 06:02:31;;;;;;;6.70;4.80;;;;;;;18.95;83.74;99993.34;4948468;28;20089;-81
2022/06/10 06:04:58;;;;;;;11.15;6.53;;;;;;;19.31;81.35;100006.03;4946753;28;20588;-83
2022/06/10 06:07:28;;;;;;;9.00;6.50;;;;;;;19.91;80.38;100032.75;4903983;28;20102;-82
2022/06/10 06:09:55;;;;;;;9.50;5.13;;;;;;;20.01;80.38;100082.84;4913145;28;20101;-81
2022/06/10 06:12:23;;;;;;;6.82;4.78;;;;;;;19.66;80.27;100019.59;4952524;28;20066;-81
2022/06/10 06:14:50;;;;;;;8.65;5.90;;;;;;;19.34;80.63;100013.91;4948084;28;20110;-82
2022/06/10 06:17:23;;;;;;;10.75;6.18;;;;;;;20.08;79.89;100061.28;4953117;28;20043;-84
2022/06/10 06:19:49;;;;;;;9.77;6.75;;;;;;;20.31;78.71;100093.06;4935590;28;20058;-84
2022/06/10 06:22:15;;;;;;;15.25;6.45;;;;;;;20.75;77.07;100095.50;4947128;28;20035;-83
2022/06/10 06:24:41;;;;;;;8.40;5.53;;;;;;;20.66;77.41;100056.81;4931553;28;20059;-84
2022/06/10 06:27:10;;;;;;;9.32;4.88;;;;;;;20.20;77.31;100018.09;4926438;28;20040;-83
2022/06/10 06:29:36;;;;;;;9.38;5.50;;;;;;;20.88;77.76;100093.13;4935789;28;20058;-83
2022/06/10 06:32:02;;;;;;;9.55;6.25;;;;;;;19.83;78.15;99918.59;4936293;28;20035;-84
2022/06/10 06:34:28;;;;;;;9.23;5.82;;;;;;;20.84;77.49;100036.41;4948748;28;20047;-83
2022/06/10 06:36:56;;;;;;;14.65;7.18;;;;;;;20.39;76.97;100021.63;4952704;28;20050;-83
2022/06/10 06:39:24;;;;;;;9.48;5.05;;;;;;;21.06;77.64;100076.22;4951628;28;20134;-83
2022/06/10 06:41:51;;;;;;;12.07;4.72;;;;;;;20.44;76.31;100029.41;4932425;28;20047;-82
2022/06/10 06:44:22;;;;;;;9.80;5.47;;;;;;;20.70;76.29;100081.53;4951275;28;20078;-83
2022/06/10 06:46:48;;;;;;;9.07;4.93;;;;;;;20.05;77.54;100024.13;4936427;28;20192;-83
2022/06/10 06:49:25;;;;;;;6.05;3.80;;;;;;;20.57;76.52;100057.25;4931452;28;20139;-84
2022/06/10 06:51:54;;;;;;;10.15;4.57;;;;;;;19.82;79.08;100015.38;4950339;28;20557;-82
2022/06/10 06:54:20;;;;;;;8.15;5.07;;;;;;;19.87;80.57;100047.13;4933851;28;20518;-84
2022/06/10 06:56:47;;;;;;;8.07;5.95;;;;;;;20.13;80.16;100054.78;4922245;28;21330;-83
2022/06/10 06:59:14;;;;;;;8.73;5.47;;;;;;;20.02;81.04;100065.09;4955673;28;20031;-82
2022/06/10 07:01:39;;;;;;;14.10;5.72;;;;;;;20.08;80.14;100079.91;4953326;28;20054;-84
2022/06/10 07:04:06;;;;;;;10.55;5.45;;;;;;;20.35;80.12;100075.16;4941872;28;20051;-83
2022/06/10 07:06:36;;;;;;;7.30;4.85;;;;;;;20.13;79.56;100065.44;4950810;28;20039;-81
2022/06/10 07:09:04;;;;;;;8.50;5.57;;;;;;;19.84;79.84;100028.63;4937066;28;20054;-84
2022/06/10 07:11:31;;;;;;;8.57;5.97;;;;;;;20.44;78.92;100091.59;4952568;28;20509;-83
2022/06/10 07:13:57;;;;;;;10.45;5.75;;;;;;;20.68;78.02;100085.22;4953222;28;20046;-83
2022/06/10 07:16:23;;;;;;;10.95;5.45;;;;;;;19.75;79.14;100020.09;4933404;29;20115;-82
2022/06/10 07:18:51;;;;;;;15.18;5.75;;;;;;;19.67;80.38;100011.56;4934788;28;20094;-83
2022/06/10 07:21:16;;;;;;;8.18;5.55;;;;;;;20.34;79.48;100100.06;4935539;28;20130;-82
2022/06/10 07:23:43;;;;;;;10.90;5.85;;;;;;;19.98;79.80;100039.50;4932999;28;20136;-83
2022/06/10 07:26:09;;;;;;;10.75;6.45;;;;;;;20.54;79.15;100096.50;4937553;29;20031;-83
2022/06/10 07:28:34;;;;;;;9.45;6.38;;;;;;;20.35;79.20;100030.72;4936210;28;20099;-83
2022/06/10 07:31:00;;;;;;;9.48;5.45;;;;;;;20.45;79.33;100092.44;4928944;28;20195;-83
2022/06/10 07:33:26;;;;;;;7.90;5.32;;;;;;;19.97;78.56;100030.66;4929319;28;20056;-82
2022/06/10 07:35:52;;;;;;;11.90;6.45;;;;;;;20.50;77.95;100033.59;4926794;28;20044;-82
2022/06/10 07:38:18;;;;;;;10.32;6.13;;;;;;;20.48;78.26;100016.81;4932922;29;20047;-82
2022/06/10 07:43:31;;;;;;;16.40;7.65;;;;;;;20.41;77.92;100040.22;4925823;28;20063;-83
2022/06/10 07:45:59;;;;;;;10.18;6.22;;;;;;;20.60;78.05;100048.22;4923990;28;20052;-82
2022/06/10 07:48:25;;;;;;;13.95;6.90;;;;;;;21.07;76.95;100099.31;4927174;28;20138;-83
2022/06/10 07:50:51;;;;;;;12.80;6.15;;;;;;;20.70;76.55;100030.88;4945457;28;20981;-83
2022/06/10 07:53:19;;;;;;;8.90;5.10;;;;;;;21.04;75.63;100082.56;4930630;29;20032;-83
2022/06/10 07:55:45;;;;;;;13.80;6.00;;;;;;;21.15;75.26;100100.75;4929729;28;20134;-84
2022/06/10 07:58:14;;;;;;;9.23;6.13;;;;;;;21.50;75.13;100083.88;4929257;28;20083;-84
2022/06/10 08:00:40;;;;;;;13.35;6.18;;;;;;;21.60;74.35;100030.84;4927100;29;20106;-82
2022/06/10 08:03:06;;;;;;;9.85;5.70;;;;;;;22.04;72.30;100093.59;4926627;28;20091;-83
2022/06/10 08:05:32;;;;;;;14.32;6.30;;;;;;;21.96;71.62;100018.31;4927947;28;20051;-83
2022/06/10 08:08:01;;;;;;;10.48;5.85;;;;;;;21.77;71.94;100067.34;4929775;29;20028;-83
2022/06/10 08:10:34;;;;;;;21.98;6.70;;;;;;;22.11;70.98;100090.50;4928721;28;20063;-85
2022/06/10 08:13:00;;;;;;;9.15;4.47;;;;;;;22.04;70.21;100101.59;4927269;28;20138;-85
2022/06/10 08:15:30;;;;;;;11.98;5.47;;;;;;;22.85;69.17;100096.34;4929556;28;20055;-84
2022/06/10 08:17:59;;;;;;;8.82;4.25;;;;;;;22.23;69.60;100093.50;4927578;28;20062;-84
2022/06/10 08:23:29;;;;;;;8.63;4.82;;;;;;;22.06;70.41;100081.88;4928511;28;20079;-82
2022/06/10 08:26:09;;;;;;;5.72;3.60;;;;;;;21.77;69.64;100054.00;4931197;28;20039;-83
2022/06/10 08:28:38;;;;;;;6.53;4.45;;;;;;;22.01;68.95;100024.25;4927612;28;20063;-83
2022/06/10 08:31:04;;;;;;;10.02;5.20;;;;;;;21.92;69.77;100079.94;4927459;28;20044;-84
2022/06/10 08:33:30;;;;;;;7.30;3.75;;;;;;;22.28;68.55;100028.16;4927546;28;20046;-82
2022/06/10 08:35:59;;;;;;;6.82;3.70;;;;;;;22.76;67.16;100082.56;4927475;28;20058;-82
2022/06/10 08:38:26;;;;;;;8.63;3.75;;;;;;;21.64;68.66;100036.91;4923785;28;20058;-83
2022/06/10 08:41:10;;;;;;;11.48;4.60;;;;;;;22.35;68.39;100103.53;4926954;29;20047;-81
2022/06/10 08:43:44;;;;;;;8.98;5.25;;;;;;;22.77;67.73;100112.84;4922949;29;20055;-83
2022/06/10 08:46:18;;;;;;;9.35;5.13;;;;;;;22.47;67.51;100078.78;4928245;28;20051;-81
2022/06/10 08:49:09;;;;;;;8.88;4.78;;;;;;;21.81;69.09;100052.03;4921069;29;20043;-82
2022/06/10 08:51:40;;;;;;;13.15;3.22;;;;;;;21.93;69.47;100107.50;4924738;28;20051;-81
2022/06/10 08:54:35;;;;;;;9.23;3.92;;;;;;;21.88;69.16;100048.09;4924005;29;20052;-82
2022/06/10 08:57:06;;;;;;;8.75;3.85;;;;;;;22.53;66.78;100097.19;4903437;29;20052;-81
2022/06/10 08:59:42;;;;;;;18.25;4.30;;;;;;;22.55;67.56;100106.00;4918132;28;20051;-81
2022/06/10 09:02:46;;;;;;;5.88;4.13;;;;;;;23.09;65.97;100112.88;4925184;29;20047;-81
2022/06/10 09:05:28;;;;;;;5.22;3.35;;;;;;;21.77;67.02;100062.00;4895312;29;20095;-80
2022/06/10 09:08:04;;;;;;;7.93;4.05;;;;;;;22.17;68.13;100108.00;4932556;28;20645;-79
2022/06/10 09:10:53;;;;;;;4.85;4.07;;;;;;;21.95;70.18;100094.94;4922715;28;20047;-79
2022/06/10 09:13:34;;;;;;;6.88;3.92;;;;;;;21.19;72.13;100064.94;4920210;28;20047;-79
2022/06/10 09:16:18;;;;;;;7.90;4.00;;;;;;;21.47;72.74;100088.50;4936591;28;20095;-80
2022/06/10 09:18:47;;;;;;;8.35;4.30;;;;;;;21.27;72.32;100046.75;4926810;28;20107;-80
2022/06/10 09:21:25;;;;;;;7.00;4.60;;;;;;;21.59;71.22;100036.28;4929046;29;20047;-78
2022/06/10 09:23:56;;;;;;;5.38;3.65;;;;;;;22.03;71.63;100108.75;4922874;28;20043;-80
2022/06/10 09:26:42;;;;;;;7.43;4.45;;;;;;;21.99;71.63;100111.69;4934910;28;20078;-80
2022/06/10 09:29:30;;;;;;;11.68;4.90;;;;;;;21.90;72.04;100047.06;4924783;29;20039;-80
2022/06/10 09:32:07;;;;;;;7.32;4.10;;;;;;;22.10;71.53;100102.16;4922451;29;20044;-80
2022/06/10 09:35:14;;;;;;;5.45;3.22;;;;;;;22.28;69.66;100115.50;4922425;28;20054;-79
2022/06/10 09:38:08;;;;;;;3.75;2.30;;;;;;;22.10;68.20;100035.34;4923542;29;20385;-80
2022/06/10 09:40:43;;;;;;;6.05;3.47;;;;;;;22.51;67.26;100047.41;4922051;29;20071;-80
2022/06/10 09:43:39;;;;;;;7.95;2.92;;;;;;;22.60;66.87;100064.78;4925196;28;20134;-79
2022/06/10 09:46:24;;;;;;;4.43;3.05;;;;;;;22.76;65.33;100036.22;4920954;28;20107;-79
2022/06/10 09:49:03;;;;;;;6.88;2.80;;;;;;;23.05;65.31;100052.44;4918313;29;20397;-79
2022/06/10 09:51:50;;;;;;;6.72;4.03;;;;;;;23.62;65.96;100122.28;4924615;28;20130;-80
2022/06/10 09:54:31;;;;;;;8.30;2.65;;;;;;;22.35;67.57;100114.22;4922567;28;20055;-79
2022/06/10 09:57:06;;;;;;;6.80;3.67;;;;;;;22.64;67.27;100090.38;4918806;28;20051;-79
2022/06/10 09:59:48;;;;;;;5.82;3.58;;;;;;;22.76;67.65;100116.47;4936903;28;20051;-81
2022/06/10 10:02:38;;;;;;;5.70;2.95;;;;;;;21.95;67.85;100041.50;4925491;29;20040;-79
2022/06/10 10:05:28;;;;;;;4.03;2.58;;;;;;;22.40;68.21;100066.72;4922802;29;20052;-81
2022/06/10 10:08:20;;;;;;;7.00;4.32;;;;;;;22.22;68.77;100065.03;4922495;29;20102;-82
2022/06/10 10:11:19;;;;;;;5.72;3.10;;;;;;;22.61;67.37;100133.34;4921981;29;20676;-78
2022/06/10 10:14:22;;;;;;;6.47;3.20;;;;;;;22.76;66.38;100121.81;4924634;28;20117;-78
2022/06/10 10:17:25;;;;;;;11.82;4.18;;;;;;;22.77;67.06;100126.22;4920307;28;20056;-79
2022/06/10 10:20:19;;;;;;;7.05;2.58;;;;;;;22.77;65.05;100083.41;4922660;29;20056;-80
2022/06/10 10:23:13;;;;;;;4.28;2.80;;;;;;;23.13;64.63;100119.78;4925648;29;20051;-78
2022/06/10 10:25:41;;;;;;;11.30;4.10;;;;;;;23.85;63.05;100079.91;4927732;28;20051;-78
2022/06/10 10:28:17;;;;;;;10.90;3.35;;;;;;;23.60;62.84;100071.50;4930857;28;20136;-79
2022/06/10 10:31:19;;;;;;;11.05;3.78;;;;;;;22.53;64.90;100054.41;4924122;28;20035;-80
2022/06/10 10:33:45;;;;;;;10.07;3.83;;;;;;;22.99;64.25;100101.81;4919405;28;20051;-80
2022/06/10 10:36:21;;;;;;;7.78;4.45;;;;;;;23.76;63.12;100095.59;4925568;28;20051;-79
2022/06/10 10:38:48;;;;;;;7.53;4.07;;;;;;;23.51;63.19;100053.28;4922659;28;20072;-81
2022/06/10 10:41:27;;;;;;;16.00;3.78;;;;;;;23.13;64.03;100122.44;4925269;29;20039;-79
2022/06/10 10:43:57;;;;;;;16.30;4.90;;;;;;;23.97;61.82;100090.72;4926194;29;20055;-82
2022/06/10 10:46:35;;;;;;;12.32;5.55;;;;;;;23.85;60.30;100053.97;4929794;28;20043;-84
2022/06/10 10:49:21;;;;;;;7.20;3.83;;;;;;;23.99;61.14;100102.22;4927503;28;20090;-78
2022/06/10 10:51:49;;;;;;;5.25;3.45;;;;;;;23.84;61.49;100095.13;4928408;28;20051;-78
2022/06/10 10:54:35;;;;;;;8.23;2.85;;;;;;;23.48;61.43;100087.41;4927513;29;20039;-79
2022/06/10 10:57:14;;;;;;;8.18;3.38;;;;;;;22.43;62.79;100007.75;4927257;29;20047;-78
2022/06/10 10:59:43;;;;;;;6.50;3.72;;;;;;;23.18;61.75;100097.16;4922334;28;20929;-78
2022/06/10 11:02:47;;;;;;;8.18;3.60;;;;;;;23.56;61.79;100104.78;4939932;28;20047;-78
2022/06/10 11:05:37;;;;;;;11.38;3.65;;;;;;;23.67;59.83;100087.19;4885328;29;20060;-77
2022/06/10 11:08:19;;;;;;;20.52;3.42;;;;;;;23.39;61.11;100088.84;4884804;29;20564;-78
2022/06/10 11:11:18;;;;;;;8.00;3.38;;;;;;;23.71;60.77;100108.34;4903328;29;20229;-79
2022/06/10 11:13:49;;;;;;;10.93;4.13;;;;;;;23.24;63.23;100090.56;4924788;29;20068;-78
2022/06/10 11:16:23;;;;;;;9.13;3.33;;;;;;;22.76;63.58;100038.91;4934791;28;20218;-77
2022/06/10 11:18:51;;;;;;;4.43;3.10;;;;;;;23.22;63.65;100075.56;4945747;28;20047;-78
2022/06/10 11:21:17;;;;;;;9.80;4.43;;;;;;;23.51;62.10;100074.72;4947208;28;20121;-78
2022/06/10 11:23:50;;;;;;;19.08;7.32;;;;;;;23.96;61.80;100069.41;4949901;28;20193;-77
2022/06/10 11:26:18;;;;;;;8.55;4.00;;;;;;;23.92;61.17;100073.22;4931343;28;20122;-78
2022/06/10 11:28:46;;;;;;;20.77;8.20;;;;;;;23.66;60.91;100032.75;4930271;28;20472;-79
2022/06/10 11:31:21;;;;;;;8.52;4.22;;;;;;;24.32;59.08;100012.59;4947823;28;20352;-78
2022/06/10 11:33:52;;;;;;;6.10;3.13;;;;;;;24.09;59.96;100032.84;4931535;28;20936;-78
2022/06/10 11:36:24;;;;;;;5.65;2.75;;;;;;;23.42;60.57;100036.91;4943525;28;20582;-78
2022/06/10 11:39:31;;;;;;;42.38;14.65;;;;;;;24.87;57.28;100028.84;4947316;28;20513;-77
2022/06/10 11:42:09;;;;;;;11.13;4.78;;;;;;;25.69;57.31;100073.47;4880926;29;20529;-76
2022/06/10 11:45:11;;;;;;;8.75;4.57;;;;;;;25.38;54.63;100003.03;4941638;28;20485;-77
2022/06/10 11:47:44;;;;;;;6.10;3.90;;;;;;;24.91;57.35;100078.66;4930514;28;21026;-76
2022/06/10 11:50:25;;;;;;;25.02;9.25;;;;;;;24.58;57.67;100037.81;4927493;28;20604;-77
2022/06/10 11:53:20;;;;;;;7.32;4.85;;;;;;;24.00;59.00;100020.88;4946943;28;20051;-76
2022/06/10 11:59:42;;;;;;;23.45;11.60;;;;;;;24.19;58.95;100007.16;4901398;28;20050;-78
2022/06/10 12:01:33;;;;;;;6.75;2.88;;;;;;;23.35;60.20;99997.09;4936890;28;20061;-78
2022/06/10 12:04:06;;;;;;;7.45;3.45;;;;;;;23.45;60.21;100031.38;4943261;28;20050;-79
2022/06/10 12:06:44;;;;;;;6.78;3.83;;;;;;;23.84;59.22;100000.47;4944703;28;20486;-79